createdAt,value
2018-08-09T00:00:50.468Z,23.00
2018-08-09T00:15:53.148Z,22.76
2018-08-09T00:30:50.579Z,22.65
2018-08-09T00:45:51.053Z,22.57
2018-08-09T01:00:51.003Z,22.53
2018-08-09T01:15:50.409Z,22.46
2018-08-09T01:30:49.474Z,22.39
2018-08-09T01:45:52.025Z,22.33
2018-08-09T02:00:50.428Z,22.23
2018-08-09T02:15:50.776Z,22.13
2018-08-09T02:30:52.879Z,22.00
2018-08-09T02:45:51.634Z,23.96
2018-08-09T03:00:50.783Z,24.82
2018-08-09T03:15:50.639Z,25.25
2018-08-09T03:30:50.733Z,25.52
2018-08-09T03:45:51.342Z,25.59
2018-08-09T04:00:51.276Z,25.84
2018-08-09T04:15:50.685Z,26.19
2018-08-09T04:30:55.741Z,26.21
2018-08-09T04:45:52.726Z,26.68
2018-08-09T05:00:51.157Z,27.22
2018-08-09T05:15:51.131Z,27.83
2018-08-09T05:30:57.549Z,28.23
2018-08-09T05:45:51.160Z,28.76
2018-08-09T06:00:59.661Z,29.21
2018-08-09T06:15:57.961Z,29.75
2018-08-09T06:30:50.550Z,30.09
2018-08-09T06:45:50.541Z,30.49
2018-08-09T07:00:50.596Z,31.03
2018-08-09T07:15:51.002Z,31.74
2018-08-09T07:30:50.965Z,32.05
2018-08-09T07:45:51.047Z,32.00
2018-08-09T08:00:51.035Z,31.85
2018-08-09T08:15:52.479Z,31.68
2018-08-09T08:30:49.888Z,31.76
2018-08-09T08:45:54.531Z,31.74
2018-08-09T09:15:51.879Z,32.12
2018-08-09T09:45:51.295Z,32.81
2018-08-09T10:30:51.476Z,32.19
2018-08-09T10:45:52.104Z,32.06
2018-08-09T11:00:55.642Z,31.28
2018-08-09T11:15:53.201Z,31.27
2018-08-09T11:30:54.744Z,31.26
2018-08-09T11:45:54.913Z,31.15
2018-08-09T12:00:53.795Z,30.90
2018-08-09T12:15:53.556Z,30.95
2018-08-09T12:30:56.282Z,30.82
2018-08-09T12:45:57.175Z,30.49
2018-08-09T13:00:57.712Z,30.18
2018-08-09T13:15:52.950Z,29.90
2018-08-09T13:30:50.683Z,29.53
2018-08-09T13:45:51.163Z,29.37
2018-08-09T14:00:50.879Z,29.21
2018-08-09T14:15:51.041Z,29.06
2018-08-09T14:30:52.424Z,28.81
2018-08-09T14:45:51.575Z,28.72
2018-08-09T15:00:53.229Z,28.63
2018-08-09T15:15:51.732Z,28.48
2018-08-09T15:30:51.621Z,28.43
2018-08-09T15:45:51.321Z,28.33
2018-08-09T16:00:50.328Z,28.19
2018-08-09T16:15:50.794Z,28.09
2018-08-09T16:30:52.671Z,27.94
2018-08-09T16:45:51.751Z,27.96
2018-08-09T17:00:50.721Z,27.86
2018-08-09T17:15:51.204Z,27.85
2018-08-09T17:30:51.188Z,27.34
2018-08-09T17:45:51.157Z,26.93
2018-08-09T18:00:51.201Z,26.67
2018-08-09T18:15:50.606Z,26.55
2018-08-09T18:30:49.669Z,26.34
2018-08-09T18:45:50.389Z,25.69
2018-08-09T19:00:50.116Z,25.56
2018-08-09T19:15:50.687Z,25.37
2018-08-09T19:30:50.707Z,25.15
2018-08-09T19:45:50.798Z,24.79
2018-08-09T20:00:51.797Z,24.89
2018-08-09T20:15:50.361Z,25.55
2018-08-09T20:30:50.152Z,25.45
2018-08-09T20:45:50.407Z,25.62
2018-08-09T21:00:50.161Z,25.85
2018-08-09T21:15:51.741Z,25.95
2018-08-09T21:30:50.857Z,25.99
2018-08-09T21:45:50.900Z,25.37
2018-08-09T22:00:56.228Z,24.81
2018-08-09T22:15:56.174Z,23.85
2018-08-09T22:30:51.004Z,23.37
2018-08-09T22:45:51.414Z,23.37
2018-08-09T23:00:51.108Z,23.56
2018-08-09T23:15:52.414Z,23.16
2018-08-09T23:30:50.599Z,22.90
2018-08-09T23:45:49.776Z,22.56
